createdAt,value
2019-06-20T00:03:08.088Z,19.36
2019-06-20T00:08:04.022Z,19.36
2019-06-20T00:13:00.918Z,19.18
2019-06-20T00:17:56.190Z,19.12
2019-06-20T00:22:53.032Z,19.16
2019-06-20T00:27:48.943Z,19.18
2019-06-20T00:32:44.861Z,19.08
2019-06-20T00:37:40.913Z,18.92
2019-06-20T00:42:37.755Z,19.07
2019-06-20T00:47:34.537Z,19.09
2019-06-20T00:52:30.058Z,18.99
2019-06-20T00:57:25.871Z,19.07
2019-06-20T01:02:21.508Z,19.04
2019-06-20T01:07:18.414Z,18.89
2019-06-20T01:12:13.994Z,18.92
2019-06-20T01:17:09.787Z,18.78
2019-06-20T01:22:06.808Z,18.84
2019-06-20T01:27:03.273Z,18.73
2019-06-20T01:31:59.774Z,18.80
2019-06-20T01:36:55.859Z,19.00
2019-06-20T01:41:51.891Z,18.90
2019-06-20T01:46:47.784Z,18.98
2019-06-20T01:51:43.623Z,18.89
2019-06-20T01:56:39.646Z,18.89
2019-06-20T02:01:36.476Z,18.80
2019-06-20T02:06:32.037Z,18.93
2019-06-20T02:11:28.003Z,18.90
2019-06-20T02:16:23.786Z,18.77
2019-06-20T02:21:19.594Z,18.84
2019-06-20T02:26:15.327Z,18.70
2019-06-20T02:31:11.024Z,18.70
2019-06-20T02:36:07.480Z,18.70
2019-06-20T02:41:03.319Z,18.58
2019-06-20T02:45:59.327Z,18.58
2019-06-20T02:50:55.236Z,18.52
2019-06-20T02:55:51.695Z,18.50
2019-06-20T03:00:47.439Z,18.53
2019-06-20T03:05:44.355Z,18.58
2019-06-20T03:10:40.664Z,18.47
2019-06-20T03:15:36.631Z,18.41
2019-06-20T03:20:32.272Z,18.43
2019-06-20T03:25:27.865Z,18.35
2019-06-20T03:30:23.788Z,18.35
2019-06-20T03:35:19.869Z,18.37
2019-06-20T03:40:15.697Z,18.44
2019-06-20T03:45:11.781Z,18.58
2019-06-20T03:50:07.640Z,18.62
2019-06-20T03:55:03.449Z,18.62
2019-06-20T03:59:59.635Z,18.50
2019-06-20T04:04:55.762Z,18.58
2019-06-20T04:09:52.867Z,18.68
2019-06-20T04:14:49.268Z,18.60
2019-06-20T04:19:44.958Z,18.73
2019-06-20T04:24:40.834Z,18.66
2019-06-20T04:29:36.816Z,18.78
2019-06-20T04:34:32.681Z,18.89
2019-06-20T04:39:28.541Z,18.83
2019-06-20T04:44:24.660Z,19.02
2019-06-20T04:49:20.777Z,19.12
2019-06-20T04:54:16.714Z,19.24
2019-06-20T04:59:13.567Z,19.26
2019-06-20T05:04:09.176Z,19.30
2019-06-20T05:09:05.375Z,19.39
2019-06-20T05:14:02.436Z,19.34
2019-06-20T05:18:58.209Z,19.47
2019-06-20T05:23:54.137Z,19.48
2019-06-20T05:28:50.227Z,19.56
2019-06-20T05:33:46.059Z,19.63
2019-06-20T05:38:43.262Z,19.67
2019-06-20T05:43:38.889Z,19.67
2019-06-20T05:48:35.987Z,19.84
2019-06-20T05:53:33.523Z,20.32
2019-06-20T05:58:29.154Z,20.39
2019-06-20T06:03:24.830Z,20.31
2019-06-20T06:08:22.189Z,20.29
2019-06-20T06:13:17.900Z,20.22
2019-06-20T06:18:14.217Z,20.44
2019-06-20T06:23:10.258Z,20.25
2019-06-20T06:28:06.207Z,20.11
2019-06-20T06:33:02.303Z,19.88
2019-06-20T06:37:58.436Z,20.02
2019-06-20T06:42:54.752Z,20.10
2019-06-20T06:47:50.453Z,20.25
2019-06-20T06:52:46.614Z,20.21
2019-06-20T06:57:42.926Z,20.24
2019-06-20T07:02:38.364Z,20.25
2019-06-20T07:07:34.030Z,20.00
2019-06-20T07:12:29.646Z,19.71
2019-06-20T07:17:25.666Z,19.91
2019-06-20T07:22:21.912Z,20.34
2019-06-20T07:27:18.445Z,20.39
2019-06-20T07:32:14.561Z,20.78
2019-06-20T07:37:10.966Z,20.50
2019-06-20T07:42:06.712Z,20.32
2019-06-20T07:47:16.711Z,20.52
2019-06-20T07:52:02.442Z,20.65
2019-06-20T07:56:59.499Z,20.78
2019-06-20T08:01:55.828Z,20.66
2019-06-20T08:06:51.304Z,20.74
2019-06-20T08:11:48.622Z,20.51
2019-06-20T08:16:44.184Z,20.85
2019-06-20T08:21:40.109Z,20.81
2019-06-20T08:26:36.776Z,20.59
2019-06-20T08:31:33.193Z,20.25
2019-06-20T08:36:28.543Z,20.19
2019-06-20T08:41:24.458Z,20.16
2019-06-20T08:46:21.264Z,20.67
2019-06-20T08:51:20.632Z,22.18
2019-06-20T08:56:19.568Z,23.54
2019-06-20T09:01:16.264Z,23.27
2019-06-20T09:06:13.798Z,23.95
2019-06-20T09:11:10.999Z,23.91
2019-06-20T09:16:07.312Z,23.56
2019-06-20T09:21:02.873Z,23.50
2019-06-20T09:25:57.636Z,22.66
2019-06-20T09:30:53.917Z,22.51
2019-06-20T09:35:53.599Z,23.15
2019-06-20T09:40:51.361Z,23.13
2019-06-20T09:45:46.180Z,23.09
2019-06-20T09:50:42.120Z,23.03
2019-06-20T09:55:38.285Z,23.08
2019-06-20T10:00:34.162Z,22.81
2019-06-20T10:05:30.853Z,23.80
2019-06-20T10:10:27.186Z,23.15
2019-06-20T10:15:22.220Z,23.05
2019-06-20T10:20:17.460Z,22.87
2019-06-20T10:25:14.539Z,23.00
2019-06-20T10:30:14.525Z,22.91
2019-06-20T10:35:09.589Z,22.75
2019-06-20T10:40:08.137Z,23.28
2019-06-20T10:45:03.967Z,23.50
2019-06-20T10:49:59.447Z,23.71
2019-06-20T10:54:57.957Z,24.47
2019-06-20T10:59:55.386Z,24.81
2019-06-20T11:04:50.452Z,24.77
2019-06-20T11:09:49.367Z,25.29
2019-06-20T11:14:46.273Z,25.44
2019-06-20T11:19:41.593Z,25.63
2019-06-20T11:24:40.925Z,25.66
2019-06-20T11:29:37.920Z,25.10
2019-06-20T11:34:34.594Z,25.88
2019-06-20T11:39:30.091Z,25.87
2019-06-20T11:44:25.687Z,24.98
2019-06-20T11:49:21.417Z,24.17
2019-06-20T11:54:15.777Z,23.65
2019-06-20T11:59:11.115Z,23.50
2019-06-20T12:04:09.347Z,23.81
2019-06-20T12:09:07.384Z,23.84
2019-06-20T12:14:03.096Z,23.88
2019-06-20T12:19:01.687Z,25.22
2019-06-20T12:23:57.584Z,24.84
2019-06-20T12:28:52.558Z,24.47
2019-06-20T12:33:49.534Z,23.95
2019-06-20T12:38:46.283Z,24.01
2019-06-20T12:43:44.448Z,24.76
2019-06-20T12:48:41.186Z,24.53
2019-06-20T12:53:38.686Z,24.05
2019-06-20T12:58:34.401Z,23.98
2019-06-20T13:03:30.122Z,24.17
2019-06-20T13:08:26.182Z,23.84
2019-06-20T13:13:22.152Z,24.14
2019-06-20T13:18:18.399Z,24.05
2019-06-20T13:23:13.574Z,23.39
2019-06-20T13:28:09.838Z,23.17
2019-06-20T13:33:05.233Z,23.17
2019-06-20T13:38:00.995Z,23.21
2019-06-20T13:42:57.674Z,23.25
2019-06-20T13:47:53.776Z,23.17
2019-06-20T13:52:51.286Z,23.21
2019-06-20T13:57:47.202Z,23.41
2019-06-20T14:02:45.020Z,23.21
2019-06-20T14:07:47.023Z,22.87
2019-06-20T14:12:41.872Z,22.83
2019-06-20T14:17:38.021Z,22.76
2019-06-20T14:22:33.697Z,22.88
2019-06-20T14:27:29.587Z,22.80
2019-06-20T14:32:25.427Z,23.05
2019-06-20T14:37:21.627Z,23.25
2019-06-20T14:42:17.785Z,23.23
2019-06-20T14:47:13.809Z,23.21
2019-06-20T14:52:09.839Z,23.18
2019-06-20T14:57:06.692Z,23.18
2019-06-20T15:02:02.256Z,22.99
2019-06-20T15:06:58.160Z,22.91
2019-06-20T15:11:55.136Z,22.91
2019-06-20T15:16:51.229Z,22.73
2019-06-20T15:21:48.486Z,22.66
2019-06-20T15:26:45.873Z,22.66
2019-06-20T15:31:43.815Z,22.60
2019-06-20T15:36:40.513Z,22.48
2019-06-20T15:41:36.467Z,22.53
2019-06-20T15:46:33.388Z,22.50
2019-06-20T15:51:29.977Z,22.55
2019-06-20T15:56:25.644Z,22.51
2019-06-20T16:01:21.553Z,22.13
2019-06-20T16:06:18.276Z,22.17
2019-06-20T16:11:14.973Z,21.92
2019-06-20T16:16:10.530Z,21.75
2019-06-20T16:21:06.631Z,21.51
2019-06-20T16:26:02.379Z,21.62
2019-06-20T16:31:08.419Z,21.73
2019-06-20T16:35:59.412Z,21.58
2019-06-20T16:40:55.894Z,21.72
2019-06-20T16:45:51.510Z,21.70
2019-06-20T16:50:48.358Z,21.69
2019-06-20T16:55:44.389Z,21.50
2019-06-20T17:00:40.884Z,21.30
2019-06-20T17:05:37.501Z,21.02
2019-06-20T17:10:33.170Z,21.00
2019-06-20T17:15:28.933Z,20.97
2019-06-20T17:20:24.756Z,20.80
2019-06-20T17:25:20.634Z,20.87
2019-06-20T17:30:16.709Z,20.74
2019-06-20T17:35:12.871Z,20.67
2019-06-20T17:40:08.641Z,20.66
2019-06-20T17:45:04.344Z,20.59
2019-06-20T17:50:00.405Z,20.58
2019-06-20T17:54:57.249Z,20.51
2019-06-20T17:59:53.345Z,20.65
2019-06-20T18:04:49.293Z,20.52
2019-06-20T18:09:45.229Z,20.58
2019-06-20T18:14:40.977Z,20.62
2019-06-20T18:19:36.900Z,20.69
2019-06-20T18:24:32.840Z,20.65
2019-06-20T18:29:29.050Z,20.37
2019-06-20T18:34:29.977Z,20.44
2019-06-20T18:39:24.604Z,20.29
2019-06-20T18:44:20.061Z,20.32
2019-06-20T18:49:16.086Z,20.29
2019-06-20T18:54:11.741Z,20.28
2019-06-20T18:59:08.166Z,20.25
2019-06-20T19:04:04.124Z,20.32
2019-06-20T19:08:59.841Z,20.32
2019-06-20T19:13:56.287Z,20.22
2019-06-20T19:18:53.627Z,20.32
2019-06-20T19:23:49.223Z,20.25
2019-06-20T19:28:46.233Z,20.19
2019-06-20T19:33:41.875Z,20.14
2019-06-20T19:38:38.234Z,19.99
2019-06-20T19:43:34.118Z,19.95
2019-06-20T19:48:29.916Z,20.04
2019-06-20T19:53:25.981Z,19.92
2019-06-20T19:58:22.058Z,19.81
2019-06-20T20:03:18.055Z,19.71
2019-06-20T20:08:14.048Z,19.76
2019-06-20T20:13:09.602Z,19.79
2019-06-20T20:18:05.604Z,19.66
2019-06-20T20:23:01.400Z,19.52
2019-06-20T20:27:57.239Z,19.54
2019-06-20T20:32:53.453Z,19.55
2019-06-20T20:37:49.253Z,19.39
2019-06-20T20:42:45.734Z,19.51
2019-06-20T20:47:41.705Z,19.33
2019-06-20T20:52:37.757Z,19.44
2019-06-20T20:57:34.380Z,19.39
2019-06-20T21:02:29.937Z,19.48
2019-06-20T21:07:26.041Z,19.12
2019-06-20T21:12:21.983Z,18.98
2019-06-20T21:17:17.694Z,19.02
2019-06-20T21:22:13.607Z,19.12
2019-06-20T21:27:10.391Z,19.09
2019-06-20T21:32:05.848Z,19.16
2019-06-20T21:37:02.085Z,19.15
2019-06-20T21:41:57.964Z,19.11
2019-06-20T21:46:53.962Z,19.12
2019-06-20T21:51:49.936Z,19.09
2019-06-20T21:56:45.633Z,19.18
2019-06-20T22:01:41.734Z,19.02
2019-06-20T22:06:37.523Z,19.11
2019-06-20T22:11:34.555Z,18.95
2019-06-20T22:16:31.249Z,19.27
2019-06-20T22:21:27.825Z,19.11
2019-06-20T22:26:23.033Z,19.15
2019-06-20T22:31:18.865Z,19.08
2019-06-20T22:36:14.532Z,19.00
2019-06-20T22:41:11.496Z,19.00
2019-06-20T22:46:06.742Z,19.07
2019-06-20T22:51:03.318Z,18.93
2019-06-20T22:55:59.450Z,18.83
2019-06-20T23:00:55.279Z,18.62
2019-06-20T23:05:52.206Z,18.56
2019-06-20T23:10:47.822Z,18.70
2019-06-20T23:15:43.718Z,18.60
2019-06-20T23:20:40.110Z,18.41
2019-06-20T23:25:35.881Z,18.52
2019-06-20T23:30:32.558Z,18.43
2019-06-20T23:35:28.988Z,18.44
2019-06-20T23:40:24.291Z,18.33
2019-06-20T23:45:20.175Z,18.31
2019-06-20T23:50:17.406Z,18.23
2019-06-20T23:55:12.908Z,18.22
